Time;durP1;ratioP1;P1;durP2;ratioP2;P2;SDS_P1;SDS_P2;PMS_P1;PMS_P2;Temp;Humidity;BMP_temperature;BMP_pressure;BME280_temperature;BME280_humidity;BME280_pressure;Samples;Min_cycle;Max_cycle;Signal;HPM_P1;HPM_P2
2021/06/08 00:00:20;;;;;;;7.25;5.30;;;;;;;16.88;59.25;101347.31;5081013;28;20094;-83
2021/06/08 00:02:49;;;;;;;11.70;5.78;;;;;;;16.78;59.37;101346.31;5087528;28;20048;-81
2021/06/08 00:05:16;;;;;;;6.00;5.40;;;;;;;16.69;59.85;101353.13;5099224;28;20463;-81
2021/06/08 00:07:44;;;;;;;6.68;5.65;;;;;;;16.63;60.50;101350.91;5085856;28;20221;-82
2021/06/08 00:10:13;;;;;;;5.72;5.20;;;;;;;16.62;60.63;101355.38;5057162;28;20436;-82
2021/06/08 00:12:40;;;;;;;5.72;4.88;;;;;;;16.68;60.08;101354.94;5080908;28;20056;-83
2021/06/08 00:15:09;;;;;;;6.70;5.78;;;;;;;16.64;60.12;101355.25;5098200;28;20048;-83
2021/06/08 00:17:45;;;;;;;6.05;5.43;;;;;;;16.66;59.65;101351.53;5075638;28;20809;-82
2021/06/08 00:20:14;;;;;;;8.60;5.60;;;;;;;16.66;59.62;101348.00;5089903;28;20040;-82
2021/06/08 00:22:45;;;;;;;8.20;5.60;;;;;;;16.79;59.33;101351.50;5095158;28;20511;-82
2021/06/08 00:25:12;;;;;;;6.78;5.68;;;;;;;16.95;59.18;101338.78;5089256;28;20048;-82
2021/06/08 00:27:40;;;;;;;9.52;5.57;;;;;;;16.88;59.34;101350.81;5094708;28;20609;-82
2021/06/08 00:30:07;;;;;;;9.48;6.25;;;;;;;16.98;59.46;101348.34;5082067;28;20057;-83
2021/06/08 00:32:35;;;;;;;11.23;6.40;;;;;;;16.71;60.38;101348.56;5077215;28;20074;-81
2021/06/08 00:35:02;;;;;;;12.40;5.75;;;;;;;16.46;60.74;101352.97;5090056;28;20040;-83
2021/06/08 00:37:29;;;;;;;11.25;5.22;;;;;;;16.31;61.32;101356.75;5101213;28;20098;-82
2021/06/08 00:39:56;;;;;;;8.05;5.45;;;;;;;16.21;62.08;101350.41;5097523;28;20048;-81
2021/06/08 00:42:32;;;;;;;6.93;5.32;;;;;;;16.27;62.38;101359.72;5105011;28;20036;-81
2021/06/08 00:45:00;;;;;;;8.40;6.07;;;;;;;16.19;62.58;101361.09;5066775;28;20455;-83
2021/06/08 00:47:28;;;;;;;12.43;5.78;;;;;;;16.16;63.24;101357.81;5080778;28;20083;-83
2021/06/08 00:49:55;;;;;;;9.02;5.85;;;;;;;16.22;63.10;101351.25;5077742;28;20063;-83
2021/06/08 00:52:22;;;;;;;7.57;5.32;;;;;;;16.15;62.88;101359.63;5085347;28;20051;-82
2021/06/08 00:54:50;;;;;;;9.80;5.70;;;;;;;16.16;63.09;101352.50;5079288;28;20040;-82
2021/06/08 00:57:18;;;;;;;7.50;5.57;;;;;;;16.24;63.00;101355.47;5085177;28;20089;-84
2021/06/08 00:59:48;;;;;;;8.52;5.05;;;;;;;16.25;62.88;101353.66;5078364;28;20140;-84
2021/06/08 01:02:15;;;;;;;5.95;5.32;;;;;;;16.08;63.03;101358.38;5080806;28;20067;-83
2021/06/08 01:04:52;;;;;;;9.45;5.90;;;;;;;16.17;63.27;101356.88;5002081;28;20045;-84
2021/06/08 01:07:19;;;;;;;7.15;5.25;;;;;;;16.02;63.88;101358.78;5024828;28;20187;-83
2021/06/08 01:09:51;;;;;;;7.63;5.30;;;;;;;15.91;64.07;101358.69;5003013;28;20270;-82
2021/06/08 01:12:18;;;;;;;8.13;4.97;;;;;;;16.04;63.80;101361.34;4992957;28;20424;-83
2021/06/08 01:14:49;;;;;;;6.05;5.38;;;;;;;16.04;63.59;101353.38;5008863;28;20438;-82
2021/06/08 01:17:18;;;;;;;6.25;5.40;;;;;;;15.88;63.87;101353.59;4999952;28;20041;-83
2021/06/08 01:19:48;;;;;;;7.03;5.10;;;;;;;15.80;63.92;101358.56;5000471;28;20049;-82
2021/06/08 01:22:17;;;;;;;7.65;5.03;;;;;;;15.88;63.74;101356.25;5021757;28;20048;-82
2021/06/08 01:24:44;;;;;;;6.65;5.28;;;;;;;16.01;63.43;101354.44;5080026;28;20132;-83
2021/06/08 01:27:13;;;;;;;8.68;5.80;;;;;;;16.06;63.33;101359.44;5067722;28;20036;-84
2021/06/08 01:29:40;;;;;;;5.38;4.88;;;;;;;15.95;63.54;101354.88;5072968;28;20102;-84
2021/06/08 01:32:08;;;;;;;5.40;4.90;;;;;;;15.82;64.09;101357.53;5079820;28;20175;-82
2021/06/08 01:34:37;;;;;;;8.18;6.22;;;;;;;15.89;63.93;101349.97;5069382;28;20591;-83
2021/06/08 01:37:05;;;;;;;10.07;5.72;;;;;;;15.99;63.75;101347.56;5064110;28;20048;-82
2021/06/08 01:39:32;;;;;;;8.77;5.00;;;;;;;15.89;63.75;101349.97;5066349;28;20205;-84
2021/06/08 01:42:00;;;;;;;7.45;5.70;;;;;;;15.77;64.17;101342.88;5063469;28;20400;-83
2021/06/08 01:44:29;;;;;;;7.95;4.80;;;;;;;15.72;64.55;101342.34;5083906;28;20180;-83
2021/06/08 01:46:57;;;;;;;11.63;5.25;;;;;;;15.86;64.46;101340.44;5080048;28;20472;-84
2021/06/08 01:49:24;;;;;;;5.65;5.15;;;;;;;15.85;64.18;101341.41;5086183;28;20112;-81
2021/06/08 01:52:13;;;;;;;8.45;5.78;;;;;;;15.89;64.20;101348.16;5064656;28;20158;-82
2021/06/08 01:54:52;;;;;;;8.20;5.30;;;;;;;15.80;64.34;101346.16;5091343;28;20135;-81
2021/06/08 01:57:33;;;;;;;9.00;5.50;;;;;;;15.68;64.69;101345.22;5107104;28;20071;-82
2021/06/08 02:00:07;;;;;;;8.45;6.20;;;;;;;15.60;65.24;101336.88;5103529;27;20044;-83
2021/06/08 02:02:59;;;;;;;7.15;5.82;;;;;;;15.53;65.53;101338.25;5059759;28;20098;-82
2021/06/08 02:05:37;;;;;;;11.52;5.85;;;;;;;15.58;65.41;101340.59;5084766;28;20044;-82
2021/06/08 02:08:37;;;;;;;11.82;5.72;;;;;;;15.53;65.23;101337.41;5063959;28;20176;-85
2021/06/08 02:11:10;;;;;;;9.40;6.22;;;;;;;15.51;65.25;101341.97;5081028;28;20184;-81
2021/06/08 02:13:48;;;;;;;7.38;5.90;;;;;;;15.55;65.35;101338.16;5061421;28;20082;-81
2021/06/08 02:16:30;;;;;;;7.53;5.57;;;;;;;15.58;64.99;101336.16;5073344;28;20123;-83
2021/06/08 02:18:57;;;;;;;8.32;6.85;;;;;;;15.67;64.74;101335.56;5048140;28;20108;-83
2021/06/08 02:21:29;;;;;;;8.30;5.57;;;;;;;15.71;64.87;101346.78;5047261;28;20064;-83
2021/06/08 02:23:58;;;;;;;8.27;6.80;;;;;;;15.64;65.00;101345.53;5076951;28;20194;-83
2021/06/08 02:26:25;;;;;;;7.75;6.03;;;;;;;15.58;65.11;101346.78;5083238;28;20055;-83
2021/06/08 02:28:54;;;;;;;14.20;6.80;;;;;;;15.66;64.84;101343.59;5098519;28;20052;-83
2021/06/08 02:31:22;;;;;;;7.05;6.13;;;;;;;15.66;64.93;101351.56;5084567;28;20087;-84
2021/06/08 02:33:50;;;;;;;8.48;6.40;;;;;;;15.63;64.68;101354.41;5070538;28;20048;-82
2021/06/08 02:36:19;;;;;;;7.82;5.88;;;;;;;15.84;63.75;101349.44;5080934;28;20127;-82
2021/06/08 02:38:47;;;;;;;7.28;6.55;;;;;;;15.92;63.38;101350.63;5093837;28;20062;-82
2021/06/08 02:41:16;;;;;;;9.30;6.35;;;;;;;15.95;63.21;101349.56;5070647;28;20142;-83
2021/06/08 02:43:44;;;;;;;9.25;5.82;;;;;;;15.93;63.20;101348.81;5070951;28;20045;-80
2021/06/08 02:46:12;;;;;;;11.18;6.68;;;;;;;15.90;63.19;101351.69;5078329;28;20040;-83
2021/06/08 02:48:40;;;;;;;11.23;6.15;;;;;;;15.99;63.00;101348.41;5064581;28;20047;-82
2021/06/08 02:51:08;;;;;;;8.98;6.00;;;;;;;15.95;63.12;101354.88;5084548;28;20277;-83
2021/06/08 02:53:36;;;;;;;11.98;6.10;;;;;;;15.88;63.33;101348.28;5073401;28;20079;-83
2021/06/08 02:56:08;;;;;;;8.90;5.88;;;;;;;15.83;63.35;101347.75;5085410;28;20035;-81
2021/06/08 02:58:36;;;;;;;9.35;6.32;;;;;;;15.79;63.70;101348.91;5079445;28;20374;-83
2021/06/08 03:01:05;;;;;;;6.85;5.57;;;;;;;15.77;63.96;101354.34;5093878;28;20055;-81
2021/06/08 03:03:36;;;;;;;8.77;6.43;;;;;;;15.78;64.13;101352.53;5089113;28;20072;-81
2021/06/08 03:06:08;;;;;;;10.10;6.68;;;;;;;15.83;63.94;101353.06;5098861;28;20091;-83
2021/06/08 03:08:40;;;;;;;6.28;5.57;;;;;;;15.85;63.88;101359.09;5080133;28;20136;-81
2021/06/08 03:11:16;;;;;;;7.03;5.90;;;;;;;16.05;63.62;101353.28;5065904;28;20055;-84
2021/06/08 03:13:46;;;;;;;8.95;6.00;;;;;;;15.95;63.95;101357.53;5032219;28;20048;-81
2021/06/08 03:16:15;;;;;;;10.40;6.50;;;;;;;15.91;64.04;101361.34;5065936;28;20036;-83
2021/06/08 03:18:45;;;;;;;12.40;6.78;;;;;;;15.98;63.75;101359.09;5045209;28;20051;-83
2021/06/08 03:21:17;;;;;;;9.07;5.90;;;;;;;16.09;63.41;101365.38;5062734;28;20151;-82
2021/06/08 03:23:50;;;;;;;8.07;5.95;;;;;;;16.14;63.34;101360.59;5067705;28;20042;-82
2021/06/08 03:26:17;;;;;;;8.73;6.00;;;;;;;16.22;63.14;101373.34;5062947;28;20477;-82
2021/06/08 03:28:46;;;;;;;9.68;6.55;;;;;;;16.15;63.57;101367.59;5070916;28;20048;-83
2021/06/08 03:31:14;;;;;;;7.35;6.55;;;;;;;16.28;63.24;101367.56;5059200;28;20127;-82
2021/06/08 03:33:42;;;;;;;12.07;6.45;;;;;;;16.32;63.13;101374.38;5070829;28;20043;-81
2021/06/08 03:36:11;;;;;;;7.97;6.72;;;;;;;16.34;63.33;101371.59;5066853;28;20040;-82
2021/06/08 03:38:40;;;;;;;8.18;5.63;;;;;;;16.49;62.67;101372.34;5077726;28;20113;-82
2021/06/08 03:41:08;;;;;;;13.52;6.75;;;;;;;16.57;62.98;101372.59;5061197;28;20040;-82
2021/06/08 03:43:36;;;;;;;17.85;6.57;;;;;;;16.63;63.00;101372.19;5070586;28;20071;-83
2021/06/08 03:46:06;;;;;;;9.73;7.22;;;;;;;16.68;62.67;101378.00;5077262;28;20046;-83
2021/06/08 03:48:33;;;;;;;9.00;7.25;;;;;;;16.80;62.33;101368.34;5078776;28;20047;-83
2021/06/08 03:51:01;;;;;;;12.65;7.38;;;;;;;16.90;62.34;101370.19;5078295;28;20044;-82
2021/06/08 03:53:28;;;;;;;9.90;7.15;;;;;;;16.93;62.17;101367.31;5066723;28;20496;-81
2021/06/08 03:55:56;;;;;;;14.18;8.40;;;;;;;17.02;61.93;101364.91;5060949;28;20060;-83
2021/06/08 03:58:24;;;;;;;9.50;7.78;;;;;;;16.89;62.56;101362.34;5085764;28;20375;-82
2021/06/08 04:00:55;;;;;;;8.20;7.18;;;;;;;17.14;62.10;101369.31;5032743;28;20136;-84
2021/06/08 04:03:22;;;;;;;11.13;7.35;;;;;;;17.24;61.73;101366.81;5047905;28;20132;-83
2021/06/08 04:05:52;;;;;;;9.32;7.00;;;;;;;17.20;61.94;101367.06;5075743;28;20115;-82
2021/06/08 04:08:20;;;;;;;10.43;7.05;;;;;;;17.30;61.62;101369.03;5054005;28;20139;-83
2021/06/08 04:10:48;;;;;;;10.52;7.60;;;;;;;17.43;61.36;101368.00;5079432;28;20083;-82
2021/06/08 04:13:16;;;;;;;11.27;7.28;;;;;;;17.62;61.08;101367.44;5063745;28;20155;-83
2021/06/08 04:15:44;;;;;;;10.02;7.57;;;;;;;17.74;60.89;101367.47;5029229;28;20089;-84
2021/06/08 04:18:11;;;;;;;11.38;7.05;;;;;;;17.92;59.82;101371.38;5079565;28;20571;-82
2021/06/08 04:20:38;;;;;;;10.02;7.75;;;;;;;17.74;61.17;101365.66;5069508;28;20313;-82
2021/06/08 04:23:08;;;;;;;8.70;6.85;;;;;;;18.13;60.25;101374.19;5082749;28;20344;-81
2021/06/08 04:25:35;;;;;;;13.18;8.38;;;;;;;18.32;59.63;101373.56;5071004;28;20143;-84
2021/06/08 04:28:03;;;;;;;10.43;7.97;;;;;;;18.98;58.02;101374.44;5088981;28;20409;-85
2021/06/08 04:30:30;;;;;;;13.13;7.07;;;;;;;20.21;53.88;101370.22;5088866;28;20116;-85
2021/06/08 04:32:57;;;;;;;8.23;6.60;;;;;;;21.67;50.56;101365.94;5073079;28;20384;-86
2021/06/08 04:35:25;;;;;;;7.45;6.75;;;;;;;22.74;46.71;101366.34;5073066;28;20579;-87
2021/06/08 04:37:52;;;;;;;14.88;7.00;;;;;;;23.20;45.29;101381.41;5067973;28;20116;-81
2021/06/08 04:40:20;;;;;;;8.80;7.22;;;;;;;23.04;45.90;101375.03;5064552;28;20054;-80
2021/06/08 04:42:48;;;;;;;13.57;7.30;;;;;;;24.71;42.57;101380.16;5075459;28;20140;-78
2021/06/08 04:45:16;;;;;;;11.18;6.53;;;;;;;25.23;41.06;101375.41;5082924;28;20052;-85
2021/06/08 04:47:44;;;;;;;13.88;6.82;;;;;;;24.80;41.50;101372.94;5076240;28;20065;-82
2021/06/08 04:50:13;;;;;;;7.35;6.30;;;;;;;25.20;41.23;101374.88;5086057;28;20050;-84
2021/06/08 04:52:41;;;;;;;9.68;6.78;;;;;;;24.52;42.03;101377.75;5087516;28;20080;-80
2021/06/08 04:55:10;;;;;;;13.30;7.45;;;;;;;25.59;40.48;101382.28;5077620;28;20280;-80
2021/06/08 04:57:38;;;;;;;17.65;7.32;;;;;;;27.02;37.42;101386.69;5065017;28;20465;-79
2021/06/08 05:00:14;;;;;;;8.82;6.07;;;;;;;27.65;36.31;101380.09;5079149;28;20135;-81
2021/06/08 05:02:48;;;;;;;8.60;6.47;;;;;;;27.59;36.16;101378.13;5062611;28;20526;-82
2021/06/08 05:05:22;;;;;;;7.45;6.28;;;;;;;28.85;34.38;101377.16;5086347;28;20136;-81
2021/06/08 05:07:56;;;;;;;13.65;7.10;;;;;;;29.33;33.50;101387.44;5076752;28;20119;-82
2021/06/08 05:10:25;;;;;;;12.63;6.45;;;;;;;28.72;34.90;101390.53;5065599;28;20044;-79
2021/06/08 05:12:52;;;;;;;15.48;6.57;;;;;;;29.82;32.88;101386.63;5084030;28;20063;-85
2021/06/08 05:15:21;;;;;;;8.15;6.70;;;;;;;30.13;32.08;101384.31;5089811;28;20099;-87
2021/06/08 05:17:55;;;;;;;;;;;;;;;31.36;30.40;101392.47;5089460;28;20052;-87
2021/06/08 05:20:38;;;;;;;7.90;6.13;;;;;;;30.47;31.49;101393.47;5080173;28;20274;-85
2021/06/08 05:23:20;;;;;;;10.13;6.38;;;;;;;31.90;29.70;101391.41;5050911;28;20041;-77
2021/06/08 05:25:51;;;;;;;14.02;7.00;;;;;;;31.74;29.78;101401.66;5078168;28;20132;-80
2021/06/08 05:28:20;;;;;;;5.50;5.00;;;;;;;32.62;27.83;101392.25;5080662;28;20430;-78
2021/06/08 05:30:47;;;;;;;8.02;5.53;;;;;;;31.93;28.94;101393.72;5062553;28;20385;-82
2021/06/08 05:33:19;;;;;;;10.77;5.60;;;;;;;32.61;27.96;101401.47;5066094;28;20475;-77
2021/06/08 05:35:52;;;;;;;8.57;5.88;;;;;;;32.48;27.73;101395.03;5066361;28;20040;-83
2021/06/08 05:38:31;;;;;;;9.82;5.55;;;;;;;32.98;27.02;101397.94;5060275;28;20431;-79
2021/06/08 05:41:14;;;;;;;9.57;5.22;;;;;;;34.12;25.13;101395.91;5051914;28;20080;-80
2021/06/08 05:43:42;;;;;;;11.25;6.13;;;;;;;34.77;24.36;101400.81;5072918;28;20109;-76
2021/06/08 05:46:10;;;;;;;12.68;5.95;;;;;;;34.24;25.48;101399.56;5068106;28;20433;-79
2021/06/08 05:48:39;;;;;;;9.30;5.72;;;;;;;31.19;28.99;101401.00;5094678;28;20043;-79
2021/06/08 05:51:07;;;;;;;10.90;5.80;;;;;;;29.71;31.92;101399.69;5090594;28;20079;-82
2021/06/08 05:53:37;;;;;;;8.30;6.35;;;;;;;28.05;34.63;101404.22;5086772;28;20087;-84
2021/06/08 05:56:06;;;;;;;12.50;6.80;;;;;;;28.93;33.46;101400.59;5082591;28;20070;-82
2021/06/08 05:58:34;;;;;;;7.82;5.85;;;;;;;31.14;30.19;101394.50;5066194;28;20445;-81
2021/06/08 06:01:03;;;;;;;9.35;6.35;;;;;;;32.63;27.76;101400.19;5078837;28;20048;-81
2021/06/08 06:03:33;;;;;;;12.15;7.18;;;;;;;32.18;28.07;101397.41;5080999;28;20045;-81
2021/06/08 06:06:02;;;;;;;16.15;6.60;;;;;;;33.91;25.83;101397.19;5072718;28;20255;-81
2021/06/08 06:08:31;;;;;;;12.43;5.55;;;;;;;30.96;29.01;101406.00;5066522;28;20441;-83
2021/06/08 06:11:00;;;;;;;9.00;6.30;;;;;;;30.86;29.11;101409.09;5060151;28;20090;-80
2021/06/08 06:13:33;;;;;;;9.32;5.22;;;;;;;32.10;28.32;101397.63;5085035;28;20048;-81
2021/06/08 06:16:01;;;;;;;9.38;4.70;;;;;;;31.45;29.05;101413.00;5079397;28;20105;-79
2021/06/08 06:18:29;;;;;;;8.50;5.90;;;;;;;29.40;32.06;101408.16;5090532;28;20047;-83
2021/06/08 06:20:56;;;;;;;14.23;5.18;;;;;;;31.35;29.67;101415.28;5052376;28;20127;-85
2021/06/08 06:23:25;;;;;;;9.00;4.90;;;;;;;31.62;29.41;101416.13;5078503;28;20499;-86
2021/06/08 06:25:57;;;;;;;9.40;5.47;;;;;;;30.12;31.70;101415.19;5080845;28;20036;-89
2021/06/08 06:28:24;;;;;;;12.35;5.80;;;;;;;28.04;35.17;101405.25;5094814;28;20515;-87
2021/06/08 06:30:53;;;;;;;9.63;5.63;;;;;;;26.85;37.43;101417.53;5068080;28;20047;-87
2021/06/08 06:33:22;;;;;;;9.23;5.38;;;;;;;27.84;36.40;101415.81;5054653;28;20040;-88
2021/06/08 06:35:50;;;;;;;9.57;5.28;;;;;;;29.81;32.95;101409.34;5083966;28;20040;-89
2021/06/08 06:38:21;;;;;;;16.63;5.07;;;;;;;29.93;32.11;101416.75;5077056;28;20079;-88
2021/06/08 06:40:51;;;;;;;10.23;4.93;;;;;;;29.58;32.36;101415.03;5081307;28;20100;-88
2021/06/08 06:43:24;;;;;;;10.18;5.63;;;;;;;28.87;34.24;101404.06;5059730;28;20093;-90
2021/06/08 06:45:53;;;;;;;11.30;6.03;;;;;;;28.41;35.05;101412.47;5056365;28;20045;-88
2021/06/08 06:48:28;;;;;;;11.10;5.15;;;;;;;27.82;36.34;101407.84;5081501;28;20401;-88
2021/06/08 06:51:02;;;;;;;16.98;5.95;;;;;;;27.07;38.06;101421.28;5069941;28;20460;-92
2021/06/08 06:53:38;;;;;;;12.68;6.05;;;;;;;27.81;36.56;101417.00;5087974;28;20144;-90
2021/06/08 06:56:11;;;;;;;14.23;5.45;;;;;;;26.71;38.79;101425.38;5074817;28;20121;-89
2021/06/08 06:58:55;;;;;;;14.85;6.15;;;;;;;25.16;41.95;101422.88;5059627;28;20079;-90
2021/06/08 07:01:29;;;;;;;10.70;5.70;;;;;;;26.44;39.98;101418.56;5089009;28;20033;-91
2021/06/08 07:04:15;;;;;;;9.93;5.22;;;;;;;29.31;34.69;101413.91;5075721;28;20457;-92
2021/06/08 07:06:49;;;;;;;9.93;5.57;;;;;;;30.55;32.65;101416.91;5085119;28;20109;-90
2021/06/08 07:09:48;;;;;;;14.27;6.57;;;;;;;30.88;31.54;101423.31;5081200;28;20233;-90
2021/06/08 07:12:38;;;;;;;11.13;5.25;;;;;;;31.43;30.58;101415.06;5099616;28;20070;-89
2021/06/08 07:15:25;;;;;;;9.60;5.15;;;;;;;32.74;28.35;101417.78;5092803;28;20041;-90
2021/06/08 07:18:03;;;;;;;15.25;5.75;;;;;;;32.19;29.39;101409.97;5087534;28;20040;-91
2021/06/08 07:20:42;;;;;;;10.10;5.20;;;;;;;34.73;25.55;101410.53;5087105;28;20112;-91
2021/06/08 07:23:20;;;;;;;12.30;5.88;;;;;;;35.55;24.59;101419.00;5069062;28;20060;-89
2021/06/08 07:25:56;;;;;;;10.68;5.90;;;;;;;35.84;23.81;101421.84;5086362;28;20074;-93
2021/06/08 07:28:37;;;;;;;13.27;5.60;;;;;;;33.69;27.01;101423.25;5094972;28;20056;-89
2021/06/08 07:31:23;;;;;;;8.17;5.10;;;;;;;33.90;26.63;101416.50;5082574;28;20036;-90
2021/06/08 07:34:04;;;;;;;14.07;5.35;;;;;;;34.57;25.02;101417.47;5060622;28;20980;-92
2021/06/08 07:36:56;;;;;;;9.40;5.65;;;;;;;35.54;23.43;101411.88;5096763;28;20040;-91
2021/06/08 07:39:40;;;;;;;9.15;5.25;;;;;;;36.39;23.00;101407.75;5071591;28;20048;-90
2021/06/08 07:42:57;;;;;;;14.98;4.82;;;;;;;34.80;23.91;101413.16;5076631;28;20048;-90
2021/06/08 07:45:40;;;;;;;9.23;5.57;;;;;;;37.14;20.88;101413.06;5091666;28;20056;-91
2021/06/08 07:48:28;;;;;;;8.68;5.05;;;;;;;33.69;23.94;101407.69;5106437;28;20042;-88
2021/06/08 07:51:05;;;;;;;6.57;4.78;;;;;;;30.94;26.82;101413.53;5064310;28;20142;-91
2021/06/08 07:53:42;;;;;;;6.28;4.35;;;;;;;31.95;26.55;101407.94;5079676;28;20072;-92
2021/06/08 07:56:27;;;;;;;14.82;5.82;;;;;;;34.39;24.24;101409.25;5080100;28;20044;-88
2021/06/08 07:59:08;;;;;;;9.05;5.00;;;;;;;36.70;21.55;101396.34;5063242;28;20147;-90
2021/06/08 08:01:40;;;;;;;7.28;4.68;;;;;;;37.68;21.05;101407.91;5064763;28;20048;-93
2021/06/08 08:04:34;;;;;;;8.07;4.88;;;;;;;36.98;21.59;101400.16;5071608;28;20131;-89
2021/06/08 08:07:07;;;;;;;7.60;4.95;;;;;;;35.75;22.46;101402.22;5054999;28;20052;-90
2021/06/08 08:09:44;;;;;;;9.10;4.55;;;;;;;34.55;22.59;101407.84;5085849;28;20067;-86
2021/06/08 08:12:26;;;;;;;4.80;3.70;;;;;;;35.23;22.17;101408.34;5096758;28;20037;-87
2021/06/08 08:15:08;;;;;;;10.75;5.65;;;;;;;35.89;21.57;101413.75;5085450;28;20062;-88
2021/06/08 08:17:40;;;;;;;9.10;3.90;;;;;;;35.76;21.37;101406.63;5090933;28;20055;-90
2021/06/08 08:20:13;;;;;;;;;;;;;;;35.89;20.78;101402.78;5091599;28;20044;-89
2021/06/08 08:22:45;;;;;;;7.47;3.83;;;;;;;36.70;20.09;101406.44;5105257;28;19916;-89
2021/06/08 08:25:15;;;;;;;8.75;4.47;;;;;;;37.12;19.21;101406.16;5091423;28;20143;-87
2021/06/08 08:28:00;;;;;;;7.15;3.80;;;;;;;35.31;21.99;101415.38;5071679;28;20056;-90
2021/06/08 08:30:32;;;;;;;8.80;4.28;;;;;;;33.50;23.90;101411.41;5098609;28;20055;-88
2021/06/08 08:33:17;;;;;;;12.70;4.38;;;;;;;32.50;25.54;101409.25;5086380;28;20106;-90
2021/06/08 08:35:57;;;;;;;10.25;3.83;;;;;;;31.24;26.61;101417.53;5086539;28;20091;-84
2021/06/08 08:38:31;;;;;;;7.47;3.92;;;;;;;29.86;28.49;101413.16;5079022;28;20044;-84
2021/06/08 08:41:02;;;;;;;8.07;5.97;;;;;;;28.62;30.10;101409.81;5092249;28;20044;-90
2021/06/08 08:43:47;;;;;;;9.25;4.75;;;;;;;29.29;29.11;101405.16;5076512;28;20119;-89
2021/06/08 08:46:20;;;;;;;11.35;4.45;;;;;;;29.68;29.48;101402.81;5077000;28;20071;-89
2021/06/08 08:48:53;;;;;;;6.88;4.38;;;;;;;29.81;29.73;101403.91;5023303;28;20499;-90
2021/06/08 08:51:28;;;;;;;12.75;4.50;;;;;;;29.23;30.54;101399.47;5084709;28;20040;-91
2021/06/08 08:54:00;;;;;;;8.38;4.00;;;;;;;28.29;32.19;101400.41;5094581;28;20127;-91
2021/06/08 08:56:39;;;;;;;7.63;4.68;;;;;;;28.58;32.30;101403.09;5080989;28;20056;-89
2021/06/08 08:59:17;;;;;;;7.60;4.43;;;;;;;28.81;31.71;101396.69;5092658;28;20044;-89
2021/06/08 09:01:49;;;;;;;9.25;4.30;;;;;;;27.45;33.52;101411.38;5085356;28;20107;-89
2021/06/08 09:04:20;;;;;;;15.15;4.80;;;;;;;27.57;33.32;101400.97;5073128;28;20431;-90
2021/06/08 09:07:02;;;;;;;6.88;4.00;;;;;;;27.02;34.54;101409.16;5055825;28;20101;-88
2021/06/08 09:09:36;;;;;;;15.60;4.25;;;;;;;27.49;33.91;101396.47;5100090;28;20054;-87
2021/06/08 09:12:08;;;;;;;15.27;4.25;;;;;;;27.56;33.72;101402.84;5092463;28;20565;-88
2021/06/08 09:14:44;;;;;;;8.32;4.55;;;;;;;26.81;35.33;101397.28;5059800;28;20421;-88
2021/06/08 09:17:18;;;;;;;5.20;4.60;;;;;;;27.27;35.00;101400.88;5098469;28;20037;-89
2021/06/08 09:19:48;;;;;;;6.93;4.25;;;;;;;27.24;34.87;101393.97;5066374;28;20214;-91
2021/06/08 09:22:23;;;;;;;9.63;4.85;;;;;;;27.61;33.81;101389.59;5103644;28;20071;-91
2021/06/08 09:24:55;;;;;;;8.10;5.10;;;;;;;28.19;32.45;101381.72;5065356;28;20040;-90
2021/06/08 09:27:37;;;;;;;8.45;3.92;;;;;;;27.99;31.89;101389.56;5071555;28;20110;-87
2021/06/08 09:30:14;;;;;;;4.93;4.13;;;;;;;27.67;32.64;101393.44;5076149;28;20169;-88
2021/06/08 09:32:41;;;;;;;5.07;3.50;;;;;;;27.01;34.20;101398.50;5072117;28;20040;-90
2021/06/08 09:35:09;;;;;;;12.90;4.82;;;;;;;26.97;34.31;101397.16;5063394;28;20047;-88
2021/06/08 09:37:36;;;;;;;5.55;3.70;;;;;;;27.43;33.50;101386.41;5062504;28;20098;-91
2021/06/08 09:40:25;;;;;;;5.75;3.60;;;;;;;27.61;32.89;101383.34;5086817;28;20490;-89
2021/06/08 09:43:05;;;;;;;7.28;3.60;;;;;;;27.98;31.27;101390.63;5076334;28;20400;-90
2021/06/08 09:45:51;;;;;;;8.35;3.33;;;;;;;28.69;30.81;101388.25;5076219;28;20131;-89
2021/06/08 09:48:19;;;;;;;7.07;3.22;;;;;;;29.50;29.40;101389.69;5099735;28;20052;-90
2021/06/08 09:50:51;;;;;;;6.40;3.83;;;;;;;29.31;29.48;101386.78;5076404;28;20083;-87
2021/06/08 09:53:28;;;;;;;5.10;3.88;;;;;;;29.07;30.51;101383.44;5085939;28;20040;-88
2021/06/08 09:56:07;;;;;;;11.57;4.20;;;;;;;29.55;29.66;101383.72;5097306;28;20056;-88
2021/06/08 09:59:14;;;;;;;6.72;4.55;;;;;;;29.21;30.14;101387.13;5075297;28;20167;-86
2021/06/08 10:01:53;;;;;;;14.77;4.20;;;;;;;29.21;31.05;101384.41;5082332;28;20310;-90
2021/06/08 10:04:20;;;;;;;7.30;3.90;;;;;;;29.29;30.31;101387.00;5053144;28;20432;-84
2021/06/08 10:06:47;;;;;;;7.57;4.07;;;;;;;28.94;30.70;101386.81;5074750;28;20377;-81
2021/06/08 10:09:16;;;;;;;4.55;4.10;;;;;;;29.36;30.15;101385.19;5078784;28;20724;-83
2021/06/08 10:11:45;;;;;;;7.53;4.82;;;;;;;28.01;31.85;101376.72;5085492;28;20051;-82
2021/06/08 10:14:14;;;;;;;9.05;4.00;;;;;;;29.48;30.74;101380.06;5069456;28;20056;-84
2021/06/08 10:16:41;;;;;;;6.13;3.78;;;;;;;29.91;29.88;101386.25;5047306;28;20063;-84
2021/06/08 10:23:25;;;;;;;7.05;3.88;;;;;;;29.08;31.47;101387.84;5085725;28;20051;-86
2021/06/08 10:25:59;;;;;;;12.50;4.50;;;;;;;29.67;31.13;101387.53;5068080;28;20094;-92
2021/06/08 10:28:28;;;;;;;13.17;4.27;;;;;;;29.28;31.48;101388.03;5051866;28;20056;-89
2021/06/08 10:30:57;;;;;;;8.10;4.53;;;;;;;29.72;30.29;101378.81;5038672;28;20486;-87
2021/06/08 10:33:44;;;;;;;5.20;3.88;;;;;;;29.76;29.78;101383.63;5080142;28;20130;-87
2021/06/08 10:36:23;;;;;;;4.85;3.67;;;;;;;29.57;30.36;101378.06;5057968;28;20120;-88
2021/06/08 10:38:56;;;;;;;5.55;4.78;;;;;;;29.34;30.85;101379.13;5070552;28;20141;-88
2021/06/08 10:41:25;;;;;;;5.65;3.95;;;;;;;29.23;30.95;101380.50;5068384;28;20488;-89
2021/06/08 10:44:01;;;;;;;5.78;3.80;;;;;;;28.26;31.98;101379.97;5079989;28;20048;-89
2021/06/08 10:46:38;;;;;;;4.57;3.83;;;;;;;29.21;30.44;101382.53;5060949;28;20099;-87
2021/06/08 10:49:09;;;;;;;7.55;4.10;;;;;;;28.87;31.36;101380.53;5066809;28;20089;-89
2021/06/08 10:52:02;;;;;;;7.47;4.07;;;;;;;27.73;33.97;101385.44;5062923;28;20040;-89
2021/06/08 10:54:44;;;;;;;6.43;4.30;;;;;;;27.44;34.55;101379.97;5072684;28;20463;-87
2021/06/08 10:57:42;;;;;;;4.10;3.70;;;;;;;27.06;35.36;101387.97;5084914;28;20044;-88
2021/06/08 11:00:27;;;;;;;8.52;4.10;;;;;;;26.80;36.34;101382.94;5081805;28;20048;-89
2021/06/08 11:03:01;;;;;;;5.38;3.88;;;;;;;26.48;35.97;101390.19;5074496;28;20135;-88
2021/06/08 11:05:54;;;;;;;10.95;5.50;;;;;;;26.63;35.79;101382.19;5080326;28;20055;-89
2021/06/08 11:08:57;;;;;;;7.53;3.95;;;;;;;25.98;36.94;101390.50;5064824;28;20080;-89
2021/06/08 11:12:09;;;;;;;7.00;4.20;;;;;;;26.22;36.56;101384.19;5088192;28;20044;-86
2021/06/08 11:14:54;;;;;;;6.40;4.75;;;;;;;26.18;37.05;101382.88;5045770;28;20447;-90
2021/06/08 11:17:36;;;;;;;17.63;4.30;;;;;;;26.39;37.29;101388.53;5076484;28;20441;-89
2021/06/08 11:20:19;;;;;;;9.35;3.97;;;;;;;26.89;36.84;101384.56;5086326;28;20485;-90
2021/06/08 11:22:54;;;;;;;8.52;3.97;;;;;;;27.10;36.47;101388.50;5104780;28;20070;-89
2021/06/08 11:25:53;;;;;;;7.03;4.63;;;;;;;26.49;37.09;101389.19;5103258;28;20051;-91
2021/06/08 11:28:56;;;;;;;4.53;3.92;;;;;;;26.18;37.27;101385.56;5081919;28;20476;-89
2021/06/08 11:31:51;;;;;;;5.07;3.88;;;;;;;26.82;36.58;101382.75;5087679;28;20071;-90
2021/06/08 11:34:19;;;;;;;5.30;3.72;;;;;;;27.38;35.18;101376.13;5091582;28;20096;-89
2021/06/08 11:37:03;;;;;;;7.18;3.90;;;;;;;27.07;36.05;101384.28;5079339;28;20063;-89
2021/06/08 11:39:32;;;;;;;7.30;4.18;;;;;;;27.15;35.08;101378.81;5105150;28;20032;-88
2021/06/08 11:42:06;;;;;;;4.60;3.63;;;;;;;27.50;34.96;101363.00;5095002;28;20036;-87
2021/06/08 11:44:46;;;;;;;8.98;4.30;;;;;;;27.71;35.10;101368.53;5093875;28;20458;-89
2021/06/08 11:47:14;;;;;;;5.57;3.90;;;;;;;27.49;34.52;101364.84;5089414;28;20063;-87
2021/06/08 11:49:59;;;;;;;5.88;3.97;;;;;;;28.53;34.03;101354.06;5081488;28;20974;-85
2021/06/08 11:52:28;;;;;;;;;;;;;;;28.51;33.68;101361.56;5091636;28;20039;-88
2021/06/08 11:54:59;;;;;;;11.95;4.63;;;;;;;27.46;35.45;101359.81;5066164;28;19960;-87
2021/06/08 11:57:40;;;;;;;9.13;3.92;;;;;;;28.49;33.88;101353.59;5094237;28;20071;-88